Waldo, Illinois
Current Conditions -  °F | °C
As of 2:55 AM on Saturday 25 Oct 2014 (Local Time) from KPNT Reporting Station
Scattered Clouds Scattered Clouds  
Wind Chill: 59°   Ceiling: Unl
Heat Index: 59°   Visibility: 10mi
Dew Point: 53°   Wind: 7mph
Humidity: 80%   Direction: 240°WSW
Pressure: 29.93"   Gusts: NA
Location:  40.7423°N, 88.8872°W
Report Text: KPNT 250755Z AUTO 24006KT 10SM SCT029 15/12 A2993 RMK AO2 T01500116
Loading
Personal Weather Stations






























Interactive Weather Map
Tropical Storm Tracking
New forecast layout! Learn more

10-Day Weather Forecast

Advertisements
Track Severe Weather on mobile